Time;durP1;ratioP1;P1;durP2;ratioP2;P2;SDS_P1;SDS_P2;PMS_P1;PMS_P2;Temp;Humidity;BMP_temperature;BMP_pressure;BME280_temperature;BME280_humidity;BME280_pressure;Samples;Min_cycle;Max_cycle;Signal;HPM_P1;HPM_P2
2023/07/14 00:02:23;;;;;;;;;;;;;;;26.83;47.16;101118.84;2246867;77;52488;-74
2023/07/14 00:05:29;;;;;;;;;;;;;;;26.83;47.22;101118.31;2290102;77;50465;-75
2023/07/14 00:08:32;;;;;;;;;;;;;;;26.82;47.28;101116.66;2302779;77;50873;-75
2023/07/14 00:11:33;;;;;;;;;;;;;;;26.82;47.42;101114.45;2293363;77;50564;-75
2023/07/14 00:14:35;;;;;;;;;;;;;;;26.82;47.36;101122.60;2232546;78;50162;-74
2023/07/14 00:17:37;;;;;;;;;;;;;;;26.81;47.30;101114.98;2264722;77;50324;-74
2023/07/14 00:20:39;;;;;;;;;;;;;;;26.82;47.64;101117.17;2264918;78;51495;-74
2023/07/14 00:23:40;;;;;;;;;;;;;;;26.81;47.60;101104.66;2232488;78;50311;-74
2023/07/14 00:26:42;;;;;;;;;;;;;;;26.80;47.53;101108.45;2264686;78;50286;-74
2023/07/14 00:29:44;;;;;;;;;;;;;;;26.81;47.62;101114.17;2264922;78;50760;-74
2023/07/14 00:32:45;;;;;;;;;;;;;;;26.80;47.55;101111.16;2246153;77;51938;-73
2023/07/14 00:35:50;;;;;;;;;;;;;;;26.79;47.64;101108.95;2288931;77;50422;-74
2023/07/14 00:38:51;;;;;;;;;;;;;;;26.80;47.68;101111.16;2267475;77;51888;-75
2023/07/14 00:41:54;;;;;;;;;;;;;;;26.79;47.75;101110.84;2267767;77;50023;-74
2023/07/14 00:44:55;;;;;;;;;;;;;;;26.79;47.68;101106.77;2301025;77;51517;-74
2023/07/14 00:48:03;;;;;;;;;;;;;;;26.78;47.87;101101.87;2300871;77;51616;-74
2023/07/14 00:51:03;;;;;;;;;;;;;;;26.79;47.77;101106.77;2300281;77;22324;-74
2023/07/14 00:54:06;;;;;;;;;;;;;;;26.78;47.93;101101.87;2301128;77;51416;-74
2023/07/14 00:57:16;;;;;;;;;;;;;;;26.78;47.75;101107.30;2300956;77;50029;-74
2023/07/14 01:00:19;;;;;;;;;;;;;;;26.77;47.69;101110.23;2301055;77;50375;-73
2023/07/14 01:03:20;;;;;;;;;;;;;;;26.76;47.62;101101.27;2260566;77;49361;-74
2023/07/14 01:06:23;;;;;;;;;;;;;;;26.76;47.61;101100.44;2232502;78;50674;-74
2023/07/14 01:09:24;;;;;;;;;;;;;;;26.77;47.53;101102.94;2265195;78;51570;-75
2023/07/14 01:12:26;;;;;;;;;;;;;;;26.77;47.50;101104.30;2265094;78;51523;-75
2023/07/14 01:15:28;;;;;;;;;;;;;;;26.76;47.61;101101.80;2232393;78;51263;-74
2023/07/14 01:18:29;;;;;;;;;;;;;;;26.75;47.45;101106.94;2264729;78;51451;-74
2023/07/14 01:21:31;;;;;;;;;;;;;;;26.75;47.47;101103.69;2264909;78;51505;-74
2023/07/14 01:24:34;;;;;;;;;;;;;;;26.73;47.51;101107.16;2264984;78;50084;-75
2023/07/14 01:27:36;;;;;;;;;;;;;;;26.75;47.50;101114.55;2232132;78;51518;-75
2023/07/14 01:30:37;;;;;;;;;;;;;;;26.74;47.44;101119.66;2264907;78;50231;-75
2023/07/14 01:33:39;;;;;;;;;;;;;;;26.74;47.52;101114.77;2280740;77;50310;-75
2023/07/14 01:36:40;;;;;;;;;;;;;;;26.75;47.48;101115.09;2240733;78;50457;-75
2023/07/14 01:39:42;;;;;;;;;;;;;;;26.72;47.48;101106.86;2232592;78;49503;-75
2023/07/14 01:42:45;;;;;;;;;;;;;;;26.72;47.45;101116.37;2264962;78;50315;-75
2023/07/14 01:45:49;;;;;;;;;;;;;;;26.71;47.60;101120.12;2264918;78;50334;-75
2023/07/14 01:48:58;;;;;;;;;;;;;;;26.71;47.51;101120.12;2264769;78;50331;-75
2023/07/14 01:52:01;;;;;;;;;;;;;;;26.71;47.45;101115.52;2232482;78;50987;-75
2023/07/14 01:55:04;;;;;;;;;;;;;;;26.69;47.51;101117.65;2264940;78;50338;-74
2023/07/14 01:58:06;;;;;;;;;;;;;;;26.70;47.57;101124.73;2264783;78;50460;-74
2023/07/14 02:01:09;;;;;;;;;;;;;;;26.70;47.48;101124.73;2264950;78;51547;-74
2023/07/14 02:04:19;;;;;;;;;;;;;;;26.69;47.63;101125.80;2262406;77;50161;-74
2023/07/14 02:07:20;;;;;;;;;;;;;;;26.69;47.46;101120.36;2300018;77;51535;-74
2023/07/14 02:10:22;;;;;;;;;;;;;;;26.68;47.37;101130.91;2301140;77;50307;-74
2023/07/14 02:13:23;;;;;;;;;;;;;;;26.67;47.60;101124.36;2301043;77;50384;-74
2023/07/14 02:16:25;;;;;;;;;;;;;;;26.68;47.64;101125.47;2267293;77;51202;-75
2023/07/14 02:19:27;;;;;;;;;;;;;;;26.65;47.62;101130.00;2267728;77;51781;-75
2023/07/14 02:22:29;;;;;;;;;;;;;;;26.65;47.45;101135.43;2301142;77;51447;-75
2023/07/14 02:25:32;;;;;;;;;;;;;;;26.66;47.43;101145.75;2301083;77;51489;-75
2023/07/14 02:28:33;;;;;;;;;;;;;;;26.66;47.34;101137.61;2266115;77;50230;-75
2023/07/14 02:31:52;;;;;;;;;;;;;;;26.66;47.40;101140.33;2267563;77;52113;-75
2023/07/14 02:34:56;;;;;;;;;;;;;;;26.64;47.46;101139.21;2282662;77;50397;-74
2023/07/14 02:38:05;;;;;;;;;;;;;;;26.65;47.44;101140.86;2300757;77;51598;-75
2023/07/14 02:41:12;;;;;;;;;;;;;;;26.64;47.33;101135.64;2300176;77;22402;-75
2023/07/14 02:44:14;;;;;;;;;;;;;;;26.63;47.40;101147.03;2300897;77;51527;-75
2023/07/14 02:47:17;;;;;;;;;;;;;;;26.61;47.43;101139.64;2300771;77;51607;-74
2023/07/14 02:50:19;;;;;;;;;;;;;;;26.62;47.46;101138.60;2301075;77;51604;-74
2023/07/14 02:53:21;;;;;;;;;;;;;;;26.61;47.59;101151.85;2242975;77;49355;-75
2023/07/14 02:56:22;;;;;;;;;;;;;;;26.60;47.50;101154.28;2300869;77;50358;-75
2023/07/14 02:59:24;;;;;;;;;;;;;;;26.62;47.48;101162.20;2267831;77;50351;-75
2023/07/14 03:02:25;;;;;;;;;;;;;;;26.60;47.51;101158.87;2292103;77;50632;-75
2023/07/14 03:05:27;;;;;;;;;;;;;;;26.61;47.44;101163.24;2242604;77;51220;-75
2023/07/14 03:08:29;;;;;;;;;;;;;;;26.60;47.44;101170.56;2266172;77;50077;-75
2023/07/14 03:11:30;;;;;;;;;;;;;;;26.60;47.39;101169.73;2297176;77;51570;-75
2023/07/14 03:14:32;;;;;;;;;;;;;;;26.59;47.49;101166.20;2297199;77;51437;-75
2023/07/14 03:17:33;;;;;;;;;;;;;;;26.60;47.35;101166.48;2297038;77;50360;-75
2023/07/14 03:20:37;;;;;;;;;;;;;;;26.59;47.27;101168.91;2297193;77;50221;-74
2023/07/14 03:23:38;;;;;;;;;;;;;;;26.59;47.29;101168.91;2266648;77;51611;-74
2023/07/14 03:26:40;;;;;;;;;;;;;;;26.60;47.29;101167.84;2296885;77;51497;-75
2023/07/14 03:29:42;;;;;;;;;;;;;;;26.58;47.22;101163.16;2241551;77;52577;-74
2023/07/14 03:32:44;;;;;;;;;;;;;;;26.60;47.25;101167.02;2298921;76;51540;-74
2023/07/14 03:35:45;;;;;;;;;;;;;;;26.59;47.21;101174.84;2288914;77;51489;-74
2023/07/14 03:38:47;;;;;;;;;;;;;;;26.59;47.24;101168.91;2267537;77;51426;-75
2023/07/14 03:41:49;;;;;;;;;;;;;;;26.58;47.26;101171.30;2267844;77;49585;-74
2023/07/14 03:44:50;;;;;;;;;;;;;;;26.58;47.25;101167.23;2267825;77;51511;-75
2023/07/14 03:47:52;;;;;;;;;;;;;;;26.56;47.27;101163.91;2300922;77;51489;-76
2023/07/14 03:50:53;;;;;;;;;;;;;;;26.54;47.24;101161.97;2301232;77;50389;-75
2023/07/14 03:53:55;;;;;;;;;;;;;;;26.52;47.23;101154.57;2267745;77;51226;-75
2023/07/14 03:56:58;;;;;;;;;;;;;;;26.55;47.22;101161.44;2301039;77;50665;-76
2023/07/14 04:00:11;;;;;;;;;;;;;;;26.54;47.26;101167.40;2268724;77;25262;-75
2023/07/14 04:03:04;;;;;;;;;;;;;;;26.52;47.20;101164.07;2288191;77;22366;-76
2023/07/14 04:06:06;;;;;;;;;;;;;;;26.52;47.20;101168.14;2288920;77;51533;-74
2023/07/14 04:09:08;;;;;;;;;;;;;;;26.54;47.14;101166.04;2301151;77;51383;-74
2023/07/14 04:12:09;;;;;;;;;;;;;;;26.53;47.03;101173.86;2267780;77;50294;-75
2023/07/14 04:15:11;;;;;;;;;;;;;;;26.53;47.03;101172.50;2267917;77;50269;-75
2023/07/14 04:18:13;;;;;;;;;;;;;;;26.53;46.95;101165.72;2242886;77;51453;-74
2023/07/14 04:21:15;;;;;;;;;;;;;;;26.53;46.91;101169.79;2267880;77;50347;-75
2023/07/14 04:24:16;;;;;;;;;;;;;;;26.53;46.82;101173.03;2301238;77;50306;-74
2023/07/14 04:27:18;;;;;;;;;;;;;;;26.54;46.82;101170.11;2267522;77;52224;-74
2023/07/14 04:30:20;;;;;;;;;;;;;;;26.53;46.70;101177.11;2267927;77;51507;-73
2023/07/14 04:33:22;;;;;;;;;;;;;;;26.53;46.73;101173.86;2256793;77;51414;-75
2023/07/14 04:36:24;;;;;;;;;;;;;;;26.52;46.77;101179.00;2288667;77;51470;-75
2023/07/14 04:39:26;;;;;;;;;;;;;;;26.54;46.72;101182.83;2268009;77;51537;-76
2023/07/14 04:42:27;;;;;;;;;;;;;;;26.52;46.60;101185.78;2267678;77;51093;-75
2023/07/14 04:45:29;;;;;;;;;;;;;;;26.52;46.47;101192.56;2267871;77;50257;-75
2023/07/14 04:48:30;;;;;;;;;;;;;;;26.52;46.38;101193.92;2301031;77;50475;-75
2023/07/14 04:51:32;;;;;;;;;;;;;;;26.53;46.18;101196.11;2301278;77;50777;-75
2023/07/14 04:54:35;;;;;;;;;;;;;;;26.53;46.08;101190.14;2301310;77;50108;-75
2023/07/14 04:57:36;;;;;;;;;;;;;;;26.56;45.89;101193.77;2267959;77;51451;-74
2023/07/14 05:00:39;;;;;;;;;;;;;;;26.59;45.84;101203.34;2267470;77;51362;-73
2023/07/14 05:03:41;;;;;;;;;;;;;;;26.62;45.83;101199.67;2289944;77;50299;-73
2023/07/14 05:06:43;;;;;;;;;;;;;;;26.67;44.19;101194.41;2300354;77;51541;-73
2023/07/14 05:09:44;;;;;;;;;;;;;;;26.67;42.77;101195.77;2267927;75;51657;-74
2023/07/14 05:12:46;;;;;;;;;;;;;;;26.67;42.07;101201.19;2259635;77;51485;-74
2023/07/14 05:15:48;;;;;;;;;;;;;;;26.66;41.43;101200.87;2289880;77;50370;-75
2023/07/14 05:18:49;;;;;;;;;;;;;;;26.65;41.12;101200.58;2232101;78;51658;-75
2023/07/14 05:21:52;;;;;;;;;;;;;;;26.65;40.77;101203.30;2265010;77;50297;-75
2023/07/14 05:24:53;;;;;;;;;;;;;;;26.69;40.96;101201.80;2291721;76;50480;-76
2023/07/14 05:27:55;;;;;;;;;;;;;;;26.74;41.03;101200.28;2306933;76;50427;-75
2023/07/14 05:30:57;;;;;;;;;;;;;;;26.78;40.93;101202.33;2248723;77;51647;-75
2023/07/14 05:33:59;;;;;;;;;;;;;;;26.80;40.61;101198.05;2261395;77;50119;-73
2023/07/14 05:37:01;;;;;;;;;;;;;;;26.83;40.64;101202.48;2294018;77;50212;-76
2023/07/14 05:40:06;;;;;;;;;;;;;;;26.85;40.42;101203.09;2274402;76;50121;-75
2023/07/14 05:43:06;;;;;;;;;;;;;;;26.86;40.39;101203.92;2266604;76;23293;-77
2023/07/14 05:46:08;;;;;;;;;;;;;;;26.88;40.23;101204.53;2243685;78;50703;-76
2023/07/14 05:49:09;;;;;;;;;;;;;;;26.90;40.21;101207.86;2243961;78;50769;-75
2023/07/14 05:52:12;;;;;;;;;;;;;;;26.91;40.12;101204.91;2255961;76;50236;-75
2023/07/14 05:55:14;;;;;;;;;;;;;;;26.92;40.14;101201.15;2253925;76;51029;-76
2023/07/14 05:58:15;;;;;;;;;;;;;;;26.93;39.95;101204.69;2269381;77;51662;-75
2023/07/14 06:01:17;;;;;;;;;;;;;;;26.95;39.79;101208.02;2265007;77;51534;-76
2023/07/14 06:04:19;;;;;;;;;;;;;;;26.99;39.47;101204.31;2278584;75;52401;-76
2023/07/14 06:07:20;;;;;;;;;;;;;;;26.97;39.59;101208.59;2256798;77;51699;-76
2023/07/14 06:10:22;;;;;;;;;;;;;;;26.99;39.27;101212.45;2269647;77;51539;-75
2023/07/14 06:13:23;;;;;;;;;;;;;;;27.03;39.30;101215.03;2302926;77;51513;-76
2023/07/14 06:16:25;;;;;;;;;;;;;;;26.97;39.39;101210.48;2301452;76;51478;-76
2023/07/14 06:19:27;;;;;;;;;;;;;;;27.01;39.21;101206.28;2242695;77;52495;-75
2023/07/14 06:22:29;;;;;;;;;;;;;;;27.01;39.07;101203.02;2268132;77;50391;-76
2023/07/14 06:25:31;;;;;;;;;;;;;;;27.02;39.11;101206.03;2300981;77;50338;-76
2023/07/14 06:28:32;;;;;;;;;;;;;;;27.03;38.87;101205.00;2300789;77;50737;-75
2023/07/14 06:31:34;;;;;;;;;;;;;;;27.06;39.08;101210.50;2267492;77;52520;-75
2023/07/14 06:34:36;;;;;;;;;;;;;;;27.06;38.91;101208.61;2248555;77;50410;-75
2023/07/14 06:37:38;;;;;;;;;;;;;;;27.07;38.75;101212.98;2300466;77;50477;-75
2023/07/14 06:40:39;;;;;;;;;;;;;;;27.06;38.67;101202.36;2302715;77;51452;-75
2023/07/14 06:43:41;;;;;;;;;;;;;;;27.07;38.62;101208.90;2269363;77;51195;-75
2023/07/14 06:46:43;;;;;;;;;;;;;;;27.07;38.61;101199.39;2269326;77;51533;-75
2023/07/14 06:49:44;;;;;;;;;;;;;;;27.07;38.47;101200.75;2302978;77;51476;-76
2023/07/14 06:52:46;;;;;;;;;;;;;;;27.08;38.46;101202.43;2270030;77;50646;-76
2023/07/14 06:55:48;;;;;;;;;;;;;;;27.08;38.38;101200.25;2269864;77;50639;-77
2023/07/14 06:58:49;;;;;;;;;;;;;;;27.08;38.33;101198.89;2269402;77;51435;-74
2023/07/14 07:01:51;;;;;;;;;;;;;;;27.07;38.33;101200.75;2269659;77;51511;-76
2023/07/14 07:04:52;;;;;;;;;;;;;;;27.08;38.21;101202.43;2245133;77;51308;-76
2023/07/14 07:07:54;;;;;;;;;;;;;;;27.07;38.11;101203.47;2209446;78;50495;-75
2023/07/14 07:10:55;;;;;;;;;;;;;;;27.08;37.96;101204.33;2232694;78;51401;-75
2023/07/14 07:13:57;;;;;;;;;;;;;;;27.06;37.90;101208.61;2264850;78;51502;-76
2023/07/14 07:16:59;;;;;;;;;;;;;;;27.06;37.90;101203.71;2232497;78;50303;-76
2023/07/14 07:20:00;;;;;;;;;;;;;;;27.05;37.84;101202.03;2208653;78;51221;-76
2023/07/14 07:23:02;;;;;;;;;;;;;;;27.04;37.83;101201.21;2265174;78;50632;-77
2023/07/14 07:26:03;;;;;;;;;;;;;;;27.03;37.82;101198.73;2232801;78;50677;-76
2023/07/14 07:29:05;;;;;;;;;;;;;;;27.03;37.75;101199.56;2264836;78;50193;-77
2023/07/14 07:32:07;;;;;;;;;;;;;;;27.03;37.73;101197.38;2208513;77;51656;-77
2023/07/14 07:35:09;;;;;;;;;;;;;;;27.04;37.63;101191.70;2278547;77;50274;-76
2023/07/14 07:38:11;;;;;;;;;;;;;;;27.04;37.54;101193.06;2300944;77;51503;-77
2023/07/14 07:41:16;;;;;;;;;;;;;;;27.03;37.50;101192.77;2301269;77;50795;-75
2023/07/14 07:44:17;;;;;;;;;;;;;;;27.03;37.46;101191.41;2267764;77;51007;-75
2023/07/14 07:47:19;;;;;;;;;;;;;;;27.02;37.32;101188.38;2267485;77;51505;-76
2023/07/14 07:50:20;;;;;;;;;;;;;;;27.04;37.26;101194.42;2301172;77;51510;-76
2023/07/14 07:53:22;;;;;;;;;;;;;;;27.04;37.07;101189.52;2300822;77;50613;-76
2023/07/14 07:56:23;;;;;;;;;;;;;;;27.02;37.10;101185.66;2267550;77;51241;-75
2023/07/14 07:59:25;;;;;;;;;;;;;;;27.02;36.91;101180.23;2267796;77;50087;-76
2023/07/14 08:02:27;;;;;;;;;;;;;;;27.02;36.76;101183.48;2267250;77;50648;-78
2023/07/14 08:05:28;;;;;;;;;;;;;;;27.02;36.75;101178.88;2251918;78;51461;-76
2023/07/14 08:08:30;;;;;;;;;;;;;;;27.02;36.69;101174.80;2232574;78;51683;-76
2023/07/14 08:11:31;;;;;;;;;;;;;;;27.03;36.34;101177.83;2265100;78;51422;-77
2023/07/14 08:14:34;;;;;;;;;;;;;;;27.03;36.49;101175.66;2264986;78;51455;-75
2023/07/14 08:17:38;;;;;;;;;;;;;;;27.01;36.65;101165.00;2264818;78;51500;-76
2023/07/14 08:20:40;;;;;;;;;;;;;;;27.02;36.40;101168.01;2233016;78;51886;-75
2023/07/14 08:23:41;;;;;;;;;;;;;;;27.02;36.22;101170.72;2232905;78;50801;-76
2023/07/14 08:26:43;;;;;;;;;;;;;;;27.02;36.32;101159.86;2264698;77;50254;-76
2023/07/14 08:29:45;;;;;;;;;;;;;;;26.96;36.76;101164.85;2265091;78;50249;-76
2023/07/14 08:32:49;;;;;;;;;;;;;;;26.97;36.70;101161.60;2216738;77;51630;-75
2023/07/14 08:35:50;;;;;;;;;;;;;;;26.96;36.74;101156.70;2288831;77;22618;-75
2023/07/14 08:38:54;;;;;;;;;;;;;;;26.94;36.57;101160.17;2300880;77;50821;-75
2023/07/14 08:41:57;;;;;;;;;;;;;;;26.91;35.68;101157.91;2301425;77;22313;-76
2023/07/14 08:45:03;;;;;;;;;;;;;;;26.89;36.06;101157.30;2301172;77;51510;-77
2023/07/14 08:48:05;;;;;;;;;;;;;;;26.92;36.43;101163.13;2301095;77;51600;-77
2023/07/14 08:51:08;;;;;;;;;;;;;;;26.94;36.61;101162.88;2301328;77;52685;-77
2023/07/14 08:54:12;;;;;;;;;;;;;;;26.95;36.75;101153.70;2299760;77;51502;-77
2023/07/14 08:57:17;;;;;;;;;;;;;;;26.93;36.32;101153.91;2266867;77;52399;-77
2023/07/14 09:00:39;;;;;;;;;;;;;;;26.94;36.34;101162.88;2301141;77;50735;-77
2023/07/14 09:03:45;;;;;;;;;;;;;;;26.94;36.36;101150.66;2299577;77;50438;-76
2023/07/14 09:06:47;;;;;;;;;;;;;;;26.93;36.15;101153.09;2270489;77;50415;-77
2023/07/14 09:09:48;;;;;;;;;;;;;;;26.92;36.23;101151.41;2232666;78;52447;-77
2023/07/14 09:13:09;;;;;;;;;;;;;;;26.90;36.38;101148.13;2232682;78;50639;-77
2023/07/14 09:16:11;;;;;;;;;;;;;;;26.89;36.04;101149.98;2265162;78;52445;-78
2023/07/14 09:19:17;;;;;;;;;;;;;;;26.89;36.21;101145.91;2264946;78;50706;-77
2023/07/14 09:22:19;;;;;;;;;;;;;;;26.87;36.24;101141.76;2264968;78;50745;-78
2023/07/14 09:25:41;;;;;;;;;;;;;;;26.86;36.29;101142.30;2264881;78;50674;-78
2023/07/14 09:28:47;;;;;;;;;;;;;;;26.86;36.22;101138.75;2211737;79;50235;-76
2023/07/14 09:31:50;;;;;;;;;;;;;;;26.84;35.97;101140.86;2211273;80;50437;-77
2023/07/14 09:34:58;;;;;;;;;;;;;;;26.83;35.89;101136.50;2206501;80;51267;-77
2023/07/14 09:38:13;;;;;;;;;;;;;;;26.78;35.89;101142.60;2211775;80;51455;-78
2023/07/14 09:41:16;;;;;;;;;;;;;;;26.77;36.38;101135.52;2140514;83;50300;-78
2023/07/14 09:44:18;;;;;;;;;;;;;;;26.75;36.55;101132.20;2140587;83;50691;-77
2023/07/14 09:47:19;;;;;;;;;;;;;;;26.74;36.47;101129.70;2140326;83;52520;-76
2023/07/14 09:50:21;;;;;;;;;;;;;;;26.75;36.81;101125.41;2140782;82;51422;-76
2023/07/14 09:53:23;;;;;;;;;;;;;;;26.74;36.59;101121.55;2140726;81;50543;-78
2023/07/14 09:56:32;;;;;;;;;;;;;;;26.76;36.29;101126.23;2140450;83;50659;-77
2023/07/14 09:59:33;;;;;;;;;;;;;;;26.73;36.40;101128.87;2158474;81;51777;-77
2023/07/14 10:02:35;;;;;;;;;;;;;;;26.70;36.47;101124.73;2158443;80;51448;-76
2023/07/14 10:05:51;;;;;;;;;;;;;;;26.68;37.00;101121.40;2168045;80;51508;-77
2023/07/14 10:08:59;;;;;;;;;;;;;;;26.68;36.53;101111.08;2180416;81;51506;-77
2023/07/14 10:12:02;;;;;;;;;;;;;;;26.65;37.02;101113.72;2180697;81;50282;-77
2023/07/14 10:15:05;;;;;;;;;;;;;;;26.66;36.90;101108.58;2157462;81;51347;-77
2023/07/14 10:18:09;;;;;;;;;;;;;;;26.66;36.64;101107.22;2248747;78;51524;-77
2023/07/14 10:21:12;;;;;;;;;;;;;;;26.64;36.95;101097.14;2264258;78;51626;-77
2023/07/14 10:24:18;;;;;;;;;;;;;;;26.62;36.82;101093.81;2265088;78;50711;-76
2023/07/14 10:27:27;;;;;;;;;;;;;;;26.64;36.74;101098.50;2266143;77;51427;-78
2023/07/14 10:30:35;;;;;;;;;;;;;;;26.61;36.95;101094.85;2301748;77;51531;-77
2023/07/14 10:33:38;;;;;;;;;;;;;;;26.62;36.81;101088.38;2299275;77;52315;-78
2023/07/14 10:36:40;;;;;;;;;;;;;;;26.63;36.73;101085.14;2292809;77;50297;-78
2023/07/14 10:39:42;;;;;;;;;;;;;;;26.62;36.56;101087.03;2269049;77;50864;-78
2023/07/14 10:42:54;;;;;;;;;;;;;;;26.60;36.57;101090.48;2302667;76;51511;-78
2023/07/14 10:45:57;;;;;;;;;;;;;;;26.59;36.69;101087.98;2303348;77;50709;-78
2023/07/14 10:49:05;;;;;;;;;;;;;;;26.62;37.21;101084.84;2303388;77;51559;-78
2023/07/14 10:52:08;;;;;;;;;;;;;;;26.59;37.40;101080.70;2303773;77;22306;-77
2023/07/14 10:55:16;;;;;;;;;;;;;;;26.63;37.48;101084.60;2302801;76;51581;-77
2023/07/14 10:58:19;;;;;;;;;;;;;;;26.64;37.63;101082.20;2240654;75;50787;-75
2023/07/14 11:01:34;;;;;;;;;;;;;;;26.63;37.56;101083.25;2303023;77;50437;-76
2023/07/14 11:04:37;;;;;;;;;;;;;;;26.65;37.59;101085.75;2254316;77;52587;-76
2023/07/14 11:07:39;;;;;;;;;;;;;;;26.67;36.56;101070.89;2284232;75;52354;-75
2023/07/14 11:10:42;;;;;;;;;;;;;;;26.61;36.50;101063.64;2237424;78;51429;-76
2023/07/14 11:13:45;;;;;;;;;;;;;;;26.59;36.91;101057.63;2282197;75;51409;-76
2023/07/14 11:17:07;;;;;;;;;;;;;;;26.58;37.22;101055.95;2299194;76;51587;-75
2023/07/14 11:20:13;;;;;;;;;;;;;;;26.60;37.39;101049.77;2290168;75;51530;-76
2023/07/14 11:23:19;;;;;;;;;;;;;;;26.63;37.64;101053.92;2293003;75;51493;-75
2023/07/14 11:26:32;;;;;;;;;;;;;;;26.63;37.75;101048.49;2296896;77;51548;-76
2023/07/14 11:29:41;;;;;;;;;;;;;;;26.63;37.80;101043.89;2258092;77;51147;-75
2023/07/14 11:32:56;;;;;;;;;;;;;;;26.64;37.82;101046.06;2266339;75;51509;-76
2023/07/14 11:35:59;;;;;;;;;;;;;;;26.65;37.87;101040.42;2293205;77;51493;-75
2023/07/14 11:39:04;;;;;;;;;;;;;;;26.66;37.86;101035.81;2289612;75;52394;-76
2023/07/14 11:42:06;;;;;;;;;;;;;;;26.67;37.98;101037.50;2263379;75;51242;-76
2023/07/14 11:45:15;;;;;;;;;;;;;;;26.69;38.05;101034.00;2264185;78;51442;-76
2023/07/14 11:48:24;;;;;;;;;;;;;;;26.68;38.00;101027.75;2282461;75;49560;-75
2023/07/14 11:51:46;;;;;;;;;;;;;;;26.69;38.08;101036.20;2289126;77;50406;-76
2023/07/14 11:55:08;;;;;;;;;;;;;;;26.70;38.23;101030.25;2256461;77;52517;-77
2023/07/14 11:58:14;;;;;;;;;;;;;;;26.68;38.09;101027.75;2200758;79;50957;-76
2023/07/14 12:01:19;;;;;;;;;;;;;;;26.68;38.04;101022.31;2238194;79;51591;-76
2023/07/14 12:04:25;;;;;;;;;;;;;;;26.69;38.05;101019.92;2221477;79;51490;-77
2023/07/14 12:07:27;;;;;;;;;;;;;;;26.70;38.09;101021.56;2212087;79;52403;-77
2023/07/14 12:10:42;;;;;;;;;;;;;;;26.70;38.15;101014.78;2171822;79;51491;-77
2023/07/14 12:13:43;;;;;;;;;;;;;;;26.69;38.25;101010.42;2238486;79;51441;-76
2023/07/14 12:16:46;;;;;;;;;;;;;;;26.72;38.38;101007.78;2238447;79;51471;-75
2023/07/14 12:19:51;;;;;;;;;;;;;;;26.74;38.42;101000.74;2214272;79;51388;-76
2023/07/14 12:23:06;;;;;;;;;;;;;;;26.75;38.37;101001.88;2238268;79;51494;-76
2023/07/14 12:26:24;;;;;;;;;;;;;;;26.77;38.34;101003.84;2238526;79;51512;-78
2023/07/14 12:29:26;;;;;;;;;;;;;;;26.80;38.01;100999.31;2195637;79;50368;-78
2023/07/14 12:32:27;;;;;;;;;;;;;;;26.81;37.51;100998.23;2258651;78;50657;-79
2023/07/14 12:35:30;;;;;;;;;;;;;;;26.79;37.10;100995.45;2265333;78;50289;-79
2023/07/14 12:38:33;;;;;;;;;;;;;;;26.83;37.08;100995.31;2265065;78;50669;-76
2023/07/14 12:41:34;;;;;;;;;;;;;;;26.84;36.77;100984.20;2265606;78;51599;-81
2023/07/14 12:44:37;;;;;;;;;;;;;;;26.83;36.19;100980.38;2260036;77;52549;-80
2023/07/14 12:47:40;;;;;;;;;;;;;;;26.84;35.85;100973.34;2303253;76;51452;-80
2023/07/14 12:50:42;;;;;;;;;;;;;;;26.85;36.08;100975.55;2282395;77;51558;-80
2023/07/14 12:53:45;;;;;;;;;;;;;;;26.87;36.03;100965.26;2238481;77;51581;-80
2023/07/14 12:56:47;;;;;;;;;;;;;;;26.87;35.42;100959.83;2265629;78;51067;-79
2023/07/14 12:59:49;;;;;;;;;;;;;;;26.80;35.31;100956.41;2252863;77;50768;-80
2023/07/14 13:02:52;;;;;;;;;;;;;;;26.77;35.20;100952.77;2265462;77;51449;-79
2023/07/14 13:05:54;;;;;;;;;;;;;;;26.80;35.34;100953.69;2266599;78;50966;-79
2023/07/14 13:08:56;;;;;;;;;;;;;;;26.73;35.27;100948.34;2265574;77;50700;-78
2023/07/14 13:11:58;;;;;;;;;;;;;;;26.70;35.23;100944.20;2265266;77;50991;-80
2023/07/14 13:15:00;;;;;;;;;;;;;;;26.70;35.10;100941.48;2265103;78;50374;-78
2023/07/14 13:18:03;;;;;;;;;;;;;;;26.74;35.38;100939.66;2265134;78;51592;-80
2023/07/14 13:21:06;;;;;;;;;;;;;;;26.77;35.46;100931.05;2264094;78;51511;-81
2023/07/14 13:24:09;;;;;;;;;;;;;;;26.77;35.57;100929.69;2233166;78;52087;-81
2023/07/14 13:27:11;;;;;;;;;;;;;;;26.80;35.55;100919.75;2263744;77;51701;-81
2023/07/14 13:30:23;;;;;;;;;;;;;;;26.77;35.78;100928.33;2265424;78;50353;-80
2023/07/14 13:33:26;;;;;;;;;;;;;;;26.78;35.88;100917.26;2244658;78;51228;-81
2023/07/14 13:36:29;;;;;;;;;;;;;;;26.77;35.96;100915.61;2265350;78;50961;-81
2023/07/14 13:39:32;;;;;;;;;;;;;;;26.74;36.15;100916.05;2265314;78;50447;-77
2023/07/14 13:42:35;;;;;;;;;;;;;;;26.70;36.29;100917.05;2289265;76;50312;-80
2023/07/14 13:45:42;;;;;;;;;;;;;;;26.71;36.42;100913.27;2262432;77;52330;-79
2023/07/14 13:48:42;;;;;;;;;;;;;;;26.74;35.98;100905.19;2270890;77;22294;-79
2023/07/14 13:51:44;;;;;;;;;;;;;;;26.79;35.92;100907.22;2269862;77;51583;-78
2023/07/14 13:54:47;;;;;;;;;;;;;;;26.76;35.41;100898.19;2269956;77;50701;-79
2023/07/14 13:57:50;;;;;;;;;;;;;;;26.79;34.91;100888.22;2258183;77;52459;-80
2023/07/14 14:00:53;;;;;;;;;;;;;;;26.80;34.71;100887.17;2305944;76;50820;-79
2023/07/14 14:03:55;;;;;;;;;;;;;;;26.80;34.63;100881.75;2260431;77;51702;-78
2023/07/14 14:06:57;;;;;;;;;;;;;;;26.78;34.81;100886.57;2295102;77;50770;-78
2023/07/14 14:09:58;;;;;;;;;;;;;;;26.77;34.24;100890.33;2239867;78;51833;-78
2023/07/14 14:13:00;;;;;;;;;;;;;;;26.75;33.84;100874.83;2233738;78;51475;-78
2023/07/14 14:16:02;;;;;;;;;;;;;;;26.73;34.09;100881.02;2234478;78;51443;-81
2023/07/14 14:19:05;;;;;;;;;;;;;;;26.73;33.90;100875.58;2265397;77;50703;-80
2023/07/14 14:22:08;;;;;;;;;;;;;;;26.73;34.33;100872.87;2231802;78;52464;-79
2023/07/14 14:25:16;;;;;;;;;;;;;;;26.75;34.48;100866.69;2265535;77;50491;-79
2023/07/14 14:28:17;;;;;;;;;;;;;;;26.77;34.68;100851.81;2251920;77;22270;-79
2023/07/14 14:31:19;;;;;;;;;;;;;;;26.79;33.80;100848.31;2247884;77;51411;-79
2023/07/14 14:34:21;;;;;;;;;;;;;;;26.78;34.25;100857.53;2244528;78;49862;-79
2023/07/14 14:37:22;;;;;;;;;;;;;;;26.82;33.62;100848.38;2265603;78;51486;-81
2023/07/14 14:40:24;;;;;;;;;;;;;;;26.80;34.09;100851.88;2265590;77;50694;-79
2023/07/14 14:43:27;;;;;;;;;;;;;;;26.81;34.16;100850.81;2303959;77;50043;-80
2023/07/14 14:46:28;;;;;;;;;;;;;;;26.83;33.31;100839.19;2270351;77;50134;-80
2023/07/14 14:49:31;;;;;;;;;;;;;;;26.81;33.20;100835.88;2270909;77;52079;-81
2023/07/14 14:52:32;;;;;;;;;;;;;;;26.76;32.85;100828.42;2246452;77;51765;-81
2023/07/14 14:55:34;;;;;;;;;;;;;;;26.76;32.84;100830.32;2303894;77;51456;-79
2023/07/14 14:58:36;;;;;;;;;;;;;;;26.80;33.25;100831.52;2246372;77;51636;-79
2023/07/14 15:01:46;;;;;;;;;;;;;;;26.78;33.77;100824.95;2265886;77;51530;-81
2023/07/14 15:04:43;;;;;;;;;;;;;;;26.76;34.28;100816.75;2234635;78;22262;-80
2023/07/14 15:07:47;;;;;;;;;;;;;;;26.76;34.55;100809.42;2278550;75;50366;-79
2023/07/14 15:10:50;;;;;;;;;;;;;;;26.77;34.30;100806.17;2233100;78;52385;-80
2023/07/14 15:13:51;;;;;;;;;;;;;;;26.78;34.49;100801.05;2265785;77;51950;-80
2023/07/14 15:16:53;;;;;;;;;;;;;;;26.84;33.97;100796.03;2265769;77;50377;-80
2023/07/14 15:19:55;;;;;;;;;;;;;;;26.88;34.04;100796.69;2265816;78;51491;-80
2023/07/14 15:22:59;;;;;;;;;;;;;;;26.82;34.42;100789.50;2265980;78;50508;-80
2023/07/14 15:26:00;;;;;;;;;;;;;;;26.83;34.30;100792.50;2245089;78;51575;-80
2023/07/14 15:29:02;;;;;;;;;;;;;;;26.87;34.25;100785.55;2265589;78;51496;-80
2023/07/14 15:32:05;;;;;;;;;;;;;;;26.85;34.12;100782.77;2265858;78;51157;-79
2023/07/14 15:35:14;;;;;;;;;;;;;;;26.80;34.23;100791.62;2220833;78;50175;-80
2023/07/14 15:38:16;;;;;;;;;;;;;;;26.81;34.34;100782.94;2284834;77;50192;-79
2023/07/14 15:41:21;;;;;;;;;;;;;;;26.81;34.17;100788.36;2303891;77;50389;-80